createdAt,value
2023-05-06T00:01:10.887Z,6.95
2023-05-06T00:03:37.804Z,6.91
2023-05-06T00:06:07.033Z,6.86
2023-05-06T00:08:33.841Z,6.94
2023-05-06T00:11:00.519Z,6.98
2023-05-06T00:13:27.190Z,6.95
2023-05-06T00:15:54.110Z,6.99
2023-05-06T00:18:22.535Z,6.99
2023-05-06T00:20:49.648Z,6.98
2023-05-06T00:23:16.461Z,7.01
2023-05-06T00:25:43.149Z,7.04
2023-05-06T00:28:09.921Z,7.09
2023-05-06T00:30:36.556Z,7.09
2023-05-06T00:33:03.402Z,7.03
2023-05-06T00:35:30.746Z,7.05
2023-05-06T00:38:12.168Z,7.10
2023-05-06T00:40:39.088Z,7.02
2023-05-06T00:43:05.979Z,7.04
2023-05-06T00:45:33.330Z,6.98
2023-05-06T00:48:00.796Z,7.05
2023-05-06T00:50:28.588Z,7.05
2023-05-06T00:52:58.273Z,7.02
2023-05-06T00:55:25.480Z,7.09
2023-05-06T00:57:52.684Z,7.04
2023-05-06T01:00:20.559Z,7.05
2023-05-06T01:02:48.547Z,7.13
2023-05-06T01:05:18.143Z,7.12
2023-05-06T01:07:59.899Z,7.01
2023-05-06T01:10:45.188Z,7.09
2023-05-06T01:13:21.549Z,7.13
2023-05-06T01:16:02.139Z,7.10
2023-05-06T01:18:32.420Z,7.10
2023-05-06T01:21:00.156Z,7.09
2023-05-06T01:23:28.842Z,7.11
2023-05-06T01:25:55.487Z,7.15
2023-05-06T01:28:22.145Z,7.17
2023-05-06T01:30:54.882Z,7.11
2023-05-06T01:33:58.566Z,7.05
2023-05-06T01:36:32.782Z,7.12
2023-05-06T01:39:12.208Z,7.17
2023-05-06T01:41:41.751Z,7.07
2023-05-06T01:44:10.830Z,7.13
2023-05-06T01:46:37.624Z,7.19
2023-05-06T01:49:08.169Z,7.14
2023-05-06T01:51:34.989Z,7.09
2023-05-06T01:54:02.576Z,7.17
2023-05-06T01:56:32.747Z,7.18
2023-05-06T01:58:59.857Z,7.14
2023-05-06T02:01:27.013Z,7.18
2023-05-06T02:03:53.833Z,7.15
2023-05-06T02:06:20.688Z,7.18
2023-05-06T02:08:47.814Z,7.08
2023-05-06T02:11:14.621Z,7.23
2023-05-06T02:13:41.511Z,7.23
2023-05-06T02:16:08.978Z,7.22
2023-05-06T02:18:36.053Z,7.23
2023-05-06T02:21:03.225Z,7.18
2023-05-06T02:23:30.241Z,7.12
2023-05-06T02:25:58.130Z,7.22
2023-05-06T02:28:25.362Z,7.11
2023-05-06T02:30:56.484Z,7.20
2023-05-06T02:33:23.800Z,7.10
2023-05-06T02:35:51.286Z,7.15
2023-05-06T02:38:18.684Z,7.08
2023-05-06T02:40:45.422Z,7.18
2023-05-06T02:43:12.327Z,7.08
2023-05-06T02:45:39.318Z,7.17
2023-05-06T02:48:06.537Z,7.17
2023-05-06T02:50:34.906Z,7.12
2023-05-06T02:53:01.608Z,7.12
2023-05-06T02:55:28.353Z,7.13
2023-05-06T02:57:55.089Z,7.07
2023-05-06T03:00:21.892Z,7.15
2023-05-06T03:02:48.653Z,7.05
2023-05-06T03:05:15.511Z,7.00
2023-05-06T03:07:42.266Z,7.10
2023-05-06T03:10:09.468Z,7.04
2023-05-06T03:12:36.412Z,7.05
2023-05-06T03:15:03.264Z,7.00
2023-05-06T03:17:29.996Z,7.12
2023-05-06T03:19:56.654Z,7.10
2023-05-06T03:22:23.324Z,7.04
2023-05-06T03:24:50.095Z,7.03
2023-05-06T03:27:16.724Z,7.08
2023-05-06T03:29:43.486Z,7.04
2023-05-06T03:32:10.169Z,7.05
2023-05-06T03:34:38.379Z,7.04
2023-05-06T03:37:05.053Z,7.04
2023-05-06T03:39:31.677Z,7.05
2023-05-06T03:41:58.370Z,7.13
2023-05-06T03:44:25.020Z,7.12
2023-05-06T03:46:51.645Z,7.12
2023-05-06T03:49:18.524Z,7.05
2023-05-06T03:51:45.245Z,7.01
2023-05-06T03:54:11.974Z,7.02
2023-05-06T03:56:38.705Z,7.06
2023-05-06T03:59:05.452Z,7.03
2023-05-06T04:01:32.138Z,6.94
2023-05-06T04:03:58.837Z,6.99
2023-05-06T04:06:26.172Z,7.01
2023-05-06T04:08:52.883Z,7.04
2023-05-06T04:11:19.611Z,7.06
2023-05-06T04:13:46.226Z,7.06
2023-05-06T04:16:13.824Z,7.02
2023-05-06T04:18:40.526Z,7.07
2023-05-06T04:21:07.206Z,7.13
2023-05-06T04:23:34.103Z,7.04
2023-05-06T04:26:00.781Z,7.04
2023-05-06T04:28:27.457Z,7.06
2023-05-06T04:30:54.197Z,7.03
2023-05-06T04:33:22.287Z,7.06
2023-05-06T04:35:59.261Z,6.94
2023-05-06T04:38:30.308Z,7.01
2023-05-06T04:40:57.452Z,7.04
2023-05-06T04:43:24.961Z,6.98
2023-05-06T04:45:52.761Z,6.98
2023-05-06T04:48:22.361Z,7.00
2023-05-06T04:50:50.136Z,6.91
2023-05-06T04:53:17.360Z,6.98
2023-05-06T04:55:44.168Z,6.99
2023-05-06T04:58:10.811Z,6.93
2023-05-06T05:00:37.526Z,7.02
2023-05-06T05:03:04.649Z,7.02
2023-05-06T05:05:33.196Z,7.05
2023-05-06T05:07:59.966Z,6.98
2023-05-06T05:10:26.793Z,6.99
2023-05-06T05:12:53.555Z,6.99
2023-05-06T05:15:21.282Z,7.09
2023-05-06T05:17:48.305Z,7.05
2023-05-06T05:20:15.023Z,7.02
2023-05-06T05:22:41.732Z,7.00
2023-05-06T05:25:08.773Z,7.00
2023-05-06T05:27:35.553Z,6.97
2023-05-06T05:30:02.264Z,7.01
2023-05-06T05:32:29.145Z,7.08
2023-05-06T05:34:56.438Z,7.13
2023-05-06T05:37:23.224Z,7.12
2023-05-06T05:39:49.999Z,7.13
2023-05-06T05:42:17.002Z,7.06
2023-05-06T05:44:43.832Z,7.14
2023-05-06T05:47:10.675Z,7.07
2023-05-06T05:49:37.355Z,7.09
2023-05-06T05:52:04.311Z,7.19
2023-05-06T05:54:31.021Z,7.22
2023-05-06T05:56:58.170Z,7.13
2023-05-06T05:59:25.328Z,7.17
2023-05-06T06:01:52.147Z,7.17
2023-05-06T06:04:21.333Z,7.16
2023-05-06T06:06:48.102Z,7.17
2023-05-06T06:09:14.888Z,7.17
2023-05-06T06:11:41.694Z,7.08
2023-05-06T06:14:08.372Z,7.07
2023-05-06T06:16:36.558Z,7.02
2023-05-06T06:19:03.329Z,7.02
2023-05-06T06:21:31.252Z,7.17
2023-05-06T06:23:58.034Z,7.15
2023-05-06T06:26:24.815Z,7.16
2023-05-06T06:28:51.452Z,7.09
2023-05-06T06:31:18.702Z,7.07
2023-05-06T06:33:45.385Z,7.08
2023-05-06T06:36:12.064Z,7.20
2023-05-06T06:38:38.800Z,7.18
2023-05-06T06:41:05.472Z,7.19
2023-05-06T06:43:34.942Z,7.17
2023-05-06T06:46:01.720Z,7.23
2023-05-06T06:48:28.457Z,7.14
2023-05-06T06:50:55.516Z,7.22
2023-05-06T06:53:22.192Z,7.29
2023-05-06T06:55:48.884Z,7.23
2023-05-06T06:58:15.529Z,7.26
2023-05-06T07:00:42.226Z,7.33
2023-05-06T07:03:08.990Z,7.23
2023-05-06T07:05:35.697Z,7.27
2023-05-06T07:08:02.374Z,7.34
2023-05-06T07:10:29.218Z,7.27
2023-05-06T07:12:55.955Z,7.36
2023-05-06T07:15:22.762Z,7.35
2023-05-06T07:17:49.497Z,7.39
2023-05-06T07:20:16.360Z,7.40
2023-05-06T07:22:43.757Z,7.29
2023-05-06T07:25:10.792Z,7.41
2023-05-06T07:27:38.001Z,7.35
2023-05-06T07:30:05.496Z,7.35
2023-05-06T07:32:32.299Z,7.41
2023-05-06T07:34:59.027Z,7.41
2023-05-06T07:37:25.750Z,7.52
2023-05-06T07:39:52.499Z,7.64
2023-05-06T07:42:19.221Z,7.57
2023-05-06T07:44:45.861Z,7.64
2023-05-06T07:47:14.718Z,7.59
2023-05-06T07:49:41.408Z,7.58
2023-05-06T07:52:08.087Z,7.56
2023-05-06T07:54:34.743Z,7.56
2023-05-06T07:57:02.381Z,7.54
2023-05-06T07:59:29.085Z,7.51
2023-05-06T08:01:55.721Z,7.58
2023-05-06T08:04:22.684Z,7.53
2023-05-06T08:06:49.410Z,7.48
2023-05-06T08:09:22.716Z,7.71
2023-05-06T08:11:50.671Z,7.54
2023-05-06T08:14:17.443Z,7.61
2023-05-06T08:16:44.394Z,7.64
2023-05-06T08:19:11.460Z,7.59
2023-05-06T08:21:38.147Z,7.64
2023-05-06T08:24:04.965Z,7.67
2023-05-06T08:26:31.597Z,7.81
2023-05-06T08:28:59.496Z,7.94
2023-05-06T08:31:26.189Z,7.88
2023-05-06T08:33:54.602Z,7.83
2023-05-06T08:36:22.254Z,7.79
2023-05-06T08:38:50.876Z,7.79
2023-05-06T08:41:19.977Z,7.88
2023-05-06T08:43:48.434Z,7.86
2023-05-06T08:46:15.561Z,7.93
2023-05-06T08:48:42.759Z,7.85
2023-05-06T08:51:10.755Z,7.95
2023-05-06T08:53:39.763Z,7.85
2023-05-06T08:56:08.881Z,7.87
2023-05-06T08:58:38.556Z,7.81
2023-05-06T09:01:06.141Z,7.81
2023-05-06T09:03:32.920Z,7.85
2023-05-06T09:05:59.887Z,7.78
2023-05-06T09:08:26.578Z,7.75
2023-05-06T09:10:53.269Z,7.89
2023-05-06T09:13:20.159Z,7.89
2023-05-06T09:15:49.014Z,7.96
2023-05-06T09:18:16.632Z,7.82
2023-05-06T09:20:46.161Z,7.86
2023-05-06T09:23:14.990Z,7.85
2023-05-06T09:25:43.271Z,7.91
2023-05-06T09:28:11.647Z,7.92
2023-05-06T09:30:43.599Z,7.85
2023-05-06T09:33:11.473Z,7.85
2023-05-06T09:35:40.358Z,7.74
2023-05-06T09:38:07.832Z,7.81
2023-05-06T09:40:39.058Z,7.90
2023-05-06T09:43:05.991Z,7.97
2023-05-06T09:45:33.276Z,8.03
2023-05-06T09:48:01.142Z,7.94
2023-05-06T09:50:28.221Z,8.01
2023-05-06T09:52:56.156Z,7.96
2023-05-06T09:55:26.637Z,7.87
2023-05-06T09:57:58.158Z,7.88
2023-05-06T10:00:28.374Z,7.86
2023-05-06T10:02:56.041Z,8.03
2023-05-06T10:05:25.087Z,8.03
2023-05-06T10:07:54.921Z,8.26
2023-05-06T10:10:24.177Z,8.20
2023-05-06T10:12:52.680Z,8.19
2023-05-06T10:15:19.517Z,8.29
2023-05-06T10:17:48.947Z,8.24
2023-05-06T10:20:16.883Z,8.23
2023-05-06T10:22:59.499Z,8.24
2023-05-06T10:25:36.482Z,8.13
2023-05-06T10:28:09.641Z,8.27
2023-05-06T10:30:53.680Z,8.38
2023-05-06T10:33:23.427Z,8.38
2023-05-06T10:36:00.285Z,8.38
2023-05-06T10:38:32.605Z,8.49
2023-05-06T10:41:00.556Z,8.40
2023-05-06T10:43:34.370Z,8.35
2023-05-06T10:46:13.013Z,8.28
2023-05-06T10:49:04.778Z,8.43
2023-05-06T10:51:34.663Z,8.36
2023-05-06T10:54:21.602Z,8.29
2023-05-06T10:56:48.256Z,8.43
2023-05-06T10:59:18.160Z,8.46
2023-05-06T11:01:45.161Z,8.41
2023-05-06T11:04:14.010Z,8.33
2023-05-06T11:06:42.761Z,8.39
2023-05-06T11:09:23.781Z,8.33
2023-05-06T11:12:03.806Z,8.36
2023-05-06T11:14:37.763Z,8.38
2023-05-06T11:17:06.735Z,8.36
2023-05-06T11:19:40.294Z,8.37
2023-05-06T11:22:07.456Z,8.46
2023-05-06T11:24:42.560Z,8.61
2023-05-06T11:27:13.617Z,8.42
2023-05-06T11:29:43.194Z,8.43
2023-05-06T11:32:25.257Z,8.39
2023-05-06T11:34:55.918Z,8.40
2023-05-06T11:37:31.575Z,8.29
2023-05-06T11:39:58.334Z,8.31
2023-05-06T11:42:27.749Z,8.42
2023-05-06T11:44:55.596Z,8.45
2023-05-06T11:47:23.545Z,8.43
2023-05-06T11:49:53.518Z,8.50
2023-05-06T11:52:23.448Z,8.69
2023-05-06T11:54:54.027Z,8.73
2023-05-06T11:57:21.045Z,8.73
2023-05-06T11:59:54.272Z,8.63
2023-05-06T12:02:21.508Z,8.84
2023-05-06T12:04:50.126Z,8.66
2023-05-06T12:07:17.011Z,8.73
2023-05-06T12:09:47.150Z,8.75
2023-05-06T12:12:19.972Z,8.62
2023-05-06T12:14:47.557Z,8.70
2023-05-06T12:17:14.844Z,8.68
2023-05-06T12:19:44.307Z,8.60
2023-05-06T12:22:15.608Z,8.49
2023-05-06T12:24:42.326Z,8.66
2023-05-06T12:27:09.118Z,8.67
2023-05-06T12:29:36.022Z,8.65
2023-05-06T12:32:14.407Z,8.65
2023-05-06T12:34:41.601Z,8.68
2023-05-06T12:37:09.006Z,8.73
2023-05-06T12:39:40.499Z,8.84
2023-05-06T12:42:07.234Z,8.83
2023-05-06T12:44:36.429Z,8.81
2023-05-06T12:47:24.252Z,8.96
2023-05-06T12:49:59.140Z,8.98
2023-05-06T12:52:28.796Z,8.94
2023-05-06T12:54:56.351Z,8.84
2023-05-06T12:57:25.481Z,8.66
2023-05-06T12:59:52.493Z,8.79
2023-05-06T13:02:19.375Z,8.74
2023-05-06T13:04:47.168Z,8.74
2023-05-06T13:07:13.995Z,8.81
2023-05-06T13:09:40.846Z,8.77
2023-05-06T13:12:09.851Z,8.70
2023-05-06T13:14:39.287Z,8.79
2023-05-06T13:17:07.322Z,8.64
2023-05-06T13:19:34.212Z,8.75
2023-05-06T13:22:01.610Z,8.78
2023-05-06T13:24:29.191Z,8.80
2023-05-06T13:26:57.119Z,8.90
2023-05-06T13:29:24.514Z,8.69
2023-05-06T13:31:51.657Z,8.60
2023-05-06T13:34:18.765Z,8.65
2023-05-06T13:36:46.836Z,8.65
2023-05-06T13:39:13.568Z,8.69
2023-05-06T13:41:40.322Z,8.71
2023-05-06T13:44:07.006Z,8.74
2023-05-06T13:46:34.046Z,8.74
2023-05-06T13:49:00.808Z,8.80
2023-05-06T13:51:30.572Z,8.83
2023-05-06T13:53:57.578Z,8.90
2023-05-06T13:56:24.443Z,8.83
2023-05-06T13:58:53.153Z,8.88
2023-05-06T14:01:21.412Z,8.89
2023-05-06T14:03:48.522Z,9.00
2023-05-06T14:06:15.258Z,8.98
2023-05-06T14:08:42.304Z,8.95
2023-05-06T14:11:11.819Z,8.96
2023-05-06T14:13:40.357Z,8.95
2023-05-06T14:16:07.392Z,8.94
2023-05-06T14:18:34.169Z,9.07
2023-05-06T14:21:00.985Z,9.09
2023-05-06T14:23:27.788Z,9.14
2023-05-06T14:25:54.521Z,9.03
2023-05-06T14:28:21.228Z,9.27
2023-05-06T14:30:48.047Z,9.21
2023-05-06T14:33:15.052Z,9.13
2023-05-06T14:35:42.956Z,9.15
2023-05-06T14:38:10.841Z,9.16
2023-05-06T14:40:38.861Z,9.07
2023-05-06T14:43:07.534Z,9.05
2023-05-06T14:45:34.758Z,9.07
2023-05-06T14:48:01.631Z,9.10
2023-05-06T14:50:29.896Z,9.05
2023-05-06T14:52:56.590Z,9.08
2023-05-06T14:55:23.468Z,9.03
2023-05-06T14:57:50.239Z,9.09
2023-05-06T15:00:17.377Z,9.10
2023-05-06T15:02:44.280Z,8.93
2023-05-06T15:05:12.312Z,9.14
2023-05-06T15:07:39.350Z,9.00
2023-05-06T15:10:06.880Z,9.04
2023-05-06T15:12:34.222Z,9.11
2023-05-06T15:15:00.967Z,9.18
2023-05-06T15:17:27.853Z,9.09
2023-05-06T15:19:54.677Z,9.20
2023-05-06T15:22:21.507Z,9.06
2023-05-06T15:24:48.315Z,9.00
2023-05-06T15:27:15.262Z,9.07
2023-05-06T15:29:44.436Z,9.10
2023-05-06T15:32:11.294Z,9.03
2023-05-06T15:34:38.033Z,8.92
2023-05-06T15:37:04.833Z,9.00
2023-05-06T15:39:37.386Z,8.98
2023-05-06T15:42:04.447Z,9.08
2023-05-06T15:44:32.550Z,8.98
2023-05-06T15:46:59.275Z,8.88
2023-05-06T15:49:49.457Z,8.94
2023-05-06T15:52:12.788Z,8.86
2023-05-06T15:54:39.982Z,8.92
2023-05-06T15:57:07.958Z,8.86
2023-05-06T15:59:34.804Z,8.80
2023-05-06T16:02:26.075Z,8.94
2023-05-06T16:04:48.486Z,8.87
2023-05-06T16:07:15.691Z,8.93
2023-05-06T16:09:42.964Z,8.90
2023-05-06T16:12:10.140Z,8.84
2023-05-06T16:14:37.056Z,8.93
2023-05-06T16:17:04.019Z,8.91
2023-05-06T16:19:32.124Z,8.95
2023-05-06T16:21:58.916Z,8.92
2023-05-06T16:24:25.683Z,8.98
2023-05-06T16:26:52.901Z,8.97
2023-05-06T16:29:20.793Z,9.00
2023-05-06T16:31:48.923Z,8.92
2023-05-06T16:34:15.915Z,8.86
2023-05-06T16:36:43.641Z,8.95
2023-05-06T16:39:10.469Z,8.94
2023-05-06T16:41:37.221Z,8.86
2023-05-06T16:44:04.321Z,8.96
2023-05-06T16:46:31.121Z,9.01
2023-05-06T16:48:57.906Z,8.95
2023-05-06T16:51:24.779Z,8.98
2023-05-06T16:53:51.548Z,8.99
2023-05-06T16:56:21.230Z,8.87
2023-05-06T16:58:48.004Z,8.80
2023-05-06T17:01:17.894Z,8.91
2023-05-06T17:03:46.271Z,8.94
2023-05-06T17:06:13.421Z,9.01
2023-05-06T17:08:40.164Z,8.87
2023-05-06T17:11:07.297Z,9.03
2023-05-06T17:13:34.608Z,8.85
2023-05-06T17:16:01.384Z,8.92
2023-05-06T17:18:28.144Z,9.00
2023-05-06T17:20:56.871Z,9.01
2023-05-06T17:23:24.747Z,9.06
2023-05-06T17:25:51.763Z,8.98
2023-05-06T17:28:19.023Z,8.90
2023-05-06T17:30:46.510Z,9.02
2023-05-06T17:33:13.286Z,9.01
2023-05-06T17:35:40.007Z,8.98
2023-05-06T17:38:06.922Z,9.00
2023-05-06T17:40:33.854Z,9.01
2023-05-06T17:43:00.866Z,8.97
2023-05-06T17:45:28.567Z,8.70
2023-05-06T17:47:56.495Z,8.87
2023-05-06T17:50:23.656Z,8.79
2023-05-06T17:52:52.347Z,8.76
2023-05-06T17:55:21.505Z,8.85
2023-05-06T17:57:48.779Z,8.81
2023-05-06T18:00:16.745Z,8.69
2023-05-06T18:02:44.548Z,8.73
2023-05-06T18:05:11.897Z,8.74
2023-05-06T18:07:39.292Z,8.82
2023-05-06T18:10:07.146Z,8.71
2023-05-06T18:12:34.068Z,8.74
2023-05-06T18:15:08.729Z,8.65
2023-05-06T18:17:40.069Z,8.77
2023-05-06T18:20:08.019Z,8.75
2023-05-06T18:22:35.106Z,8.75
2023-05-06T18:25:04.331Z,8.76
2023-05-06T18:27:32.343Z,8.75
2023-05-06T18:30:01.419Z,8.73
2023-05-06T18:32:28.237Z,8.84
2023-05-06T18:34:54.964Z,8.82
2023-05-06T18:37:21.665Z,8.79
2023-05-06T18:39:48.448Z,8.82
2023-05-06T18:42:15.501Z,8.80
2023-05-06T18:44:42.929Z,8.79
2023-05-06T18:47:09.716Z,8.81
2023-05-06T18:49:36.522Z,8.74
2023-05-06T18:52:03.469Z,8.81
2023-05-06T18:54:30.709Z,8.86
2023-05-06T18:57:01.097Z,8.74
2023-05-06T18:59:27.882Z,8.83
2023-05-06T19:01:54.657Z,8.84
2023-05-06T19:04:21.438Z,8.87
2023-05-06T19:06:48.239Z,8.82
2023-05-06T19:09:15.000Z,8.73
2023-05-06T19:11:41.754Z,8.81
2023-05-06T19:14:08.749Z,8.80
2023-05-06T19:16:35.702Z,8.70
2023-05-06T19:19:03.439Z,8.80
2023-05-06T19:21:31.393Z,8.84
2023-05-06T19:23:59.891Z,8.94
2023-05-06T19:26:29.723Z,8.87
2023-05-06T19:28:56.452Z,8.73
2023-05-06T19:31:25.545Z,8.71
2023-05-06T19:33:54.928Z,8.82
2023-05-06T19:36:21.644Z,8.82
2023-05-06T19:38:48.373Z,8.69
2023-05-06T19:41:15.202Z,8.72
2023-05-06T19:43:43.644Z,8.72
2023-05-06T19:46:11.668Z,8.70
2023-05-06T19:48:39.088Z,8.65
2023-05-06T19:51:06.722Z,8.55
2023-05-06T19:53:34.168Z,8.64
2023-05-06T19:56:14.145Z,8.57
2023-05-06T19:58:41.063Z,8.52
2023-05-06T20:01:07.929Z,8.55
2023-05-06T20:03:35.568Z,8.61
2023-05-06T20:06:03.926Z,8.56
2023-05-06T20:08:31.045Z,8.47
2023-05-06T20:10:58.382Z,8.52
2023-05-06T20:13:25.364Z,8.51
2023-05-06T20:15:54.113Z,8.52
2023-05-06T20:18:23.410Z,8.45
2023-05-06T20:20:50.154Z,8.46
2023-05-06T20:23:16.859Z,8.44
2023-05-06T20:25:43.618Z,8.52
2023-05-06T20:28:10.434Z,8.41
2023-05-06T20:30:38.398Z,8.37
2023-05-06T20:33:05.420Z,8.34
2023-05-06T20:35:37.961Z,8.36
2023-05-06T20:38:04.814Z,8.46
2023-05-06T20:40:33.285Z,8.46
2023-05-06T20:43:00.403Z,8.47
2023-05-06T20:45:27.666Z,8.44
2023-05-06T20:47:54.520Z,8.37
2023-05-06T20:50:21.332Z,8.40
2023-05-06T20:52:48.269Z,8.42
2023-05-06T20:55:15.843Z,8.45
2023-05-06T20:57:44.173Z,8.44
2023-05-06T21:00:11.601Z,8.39
2023-05-06T21:02:41.327Z,8.46
2023-05-06T21:05:09.840Z,8.39
2023-05-06T21:07:36.854Z,8.42
2023-05-06T21:10:05.690Z,8.42
2023-05-06T21:12:33.552Z,8.37
2023-05-06T21:15:01.104Z,8.48
2023-05-06T21:17:28.524Z,8.45
2023-05-06T21:19:55.493Z,8.42
2023-05-06T21:22:23.781Z,8.42
2023-05-06T21:24:51.256Z,8.45
2023-05-06T21:27:18.255Z,8.34
2023-05-06T21:29:45.024Z,8.40
2023-05-06T21:32:11.730Z,8.48
2023-05-06T21:34:38.406Z,8.36
2023-05-06T21:37:05.122Z,8.45
2023-05-06T21:39:31.854Z,8.40
2023-05-06T21:41:58.648Z,8.52
2023-05-06T21:44:25.399Z,8.41
2023-05-06T21:46:52.323Z,8.38
2023-05-06T21:49:21.298Z,8.37
2023-05-06T21:51:48.196Z,8.36
2023-05-06T21:54:16.113Z,8.45
2023-05-06T21:56:42.864Z,8.34
2023-05-06T21:59:09.589Z,8.30
2023-05-06T22:01:36.736Z,8.39
2023-05-06T22:04:09.365Z,8.28
2023-05-06T22:06:36.184Z,8.34
2023-05-06T22:09:04.497Z,8.42
2023-05-06T22:11:31.213Z,8.50
2023-05-06T22:13:58.042Z,8.41
2023-05-06T22:16:24.793Z,8.32
2023-05-06T22:18:51.830Z,8.33
2023-05-06T22:21:18.664Z,8.32
2023-05-06T22:23:45.502Z,8.40
2023-05-06T22:26:12.282Z,8.45
2023-05-06T22:28:38.998Z,8.37
2023-05-06T22:31:05.944Z,8.31
2023-05-06T22:33:32.820Z,8.34
2023-05-06T22:35:59.932Z,8.48
2023-05-06T22:38:26.652Z,8.38
2023-05-06T22:40:53.364Z,8.43
2023-05-06T22:43:20.486Z,8.42
2023-05-06T22:45:48.959Z,8.42
2023-05-06T22:48:16.634Z,8.46
2023-05-06T22:50:43.338Z,8.35
2023-05-06T22:53:14.936Z,8.36
2023-05-06T22:55:42.399Z,8.45
2023-05-06T22:58:11.395Z,8.48
2023-05-06T23:00:38.207Z,8.41
2023-05-06T23:03:05.972Z,8.42
2023-05-06T23:05:32.791Z,8.45
2023-05-06T23:07:59.694Z,8.41
2023-05-06T23:10:26.838Z,8.48
2023-05-06T23:12:53.594Z,8.42
2023-05-06T23:15:20.664Z,8.43
2023-05-06T23:17:47.407Z,8.36
2023-05-06T23:20:14.172Z,8.48
2023-05-06T23:22:40.930Z,8.36
2023-05-06T23:25:11.832Z,8.49
2023-05-06T23:27:39.893Z,8.44
2023-05-06T23:30:08.241Z,8.43
2023-05-06T23:32:35.171Z,8.57
2023-05-06T23:35:02.278Z,8.51
2023-05-06T23:37:29.039Z,8.53
2023-05-06T23:39:56.940Z,8.56
2023-05-06T23:42:25.666Z,8.50
2023-05-06T23:44:55.714Z,8.51
2023-05-06T23:47:25.605Z,8.53
2023-05-06T23:49:52.479Z,8.52
2023-05-06T23:52:19.175Z,8.53
2023-05-06T23:54:45.938Z,8.56
2023-05-06T23:57:12.908Z,8.59
2023-05-06T23:59:39.709Z,8.53
